sensor_id;sensor_type;location;lat;lon;timestamp;P1;durP1;ratioP1;P2;durP2;ratioP2
16139;SDS011;8175;49.326;12.690;2024-03-02T00:02:13;26.67;;;17.30;;
16139;SDS011;8175;49.326;12.690;2024-03-02T00:04:39;29.57;;;17.13;;
16139;SDS011;8175;49.326;12.690;2024-03-02T00:07:06;23.67;;;16.10;;
16139;SDS011;8175;49.326;12.690;2024-03-02T00:09:32;24.70;;;15.50;;
16139;SDS011;8175;49.326;12.690;2024-03-02T00:11:59;20.07;;;14.23;;
16139;SDS011;8175;49.326;12.690;2024-03-02T00:14:25;22.50;;;14.13;;
16139;SDS011;8175;49.326;12.690;2024-03-02T00:16:55;20.83;;;14.67;;
16139;SDS011;8175;49.326;12.690;2024-03-02T00:19:21;19.57;;;13.23;;
16139;SDS011;8175;49.326;12.690;2024-03-02T00:21:47;18.73;;;13.47;;
16139;SDS011;8175;49.326;12.690;2024-03-02T00:27:12;19.50;;;13.43;;
16139;SDS011;8175;49.326;12.690;2024-03-02T00:29:40;20.27;;;13.73;;
16139;SDS011;8175;49.326;12.690;2024-03-02T00:32:12;20.60;;;14.10;;
16139;SDS011;8175;49.326;12.690;2024-03-02T00:34:39;17.93;;;13.90;;
16139;SDS011;8175;49.326;12.690;2024-03-02T00:37:05;23.07;;;15.30;;
16139;SDS011;8175;49.326;12.690;2024-03-02T00:39:31;21.57;;;13.57;;
16139;SDS011;8175;49.326;12.690;2024-03-02T00:41:57;21.03;;;14.97;;
16139;SDS011;8175;49.326;12.690;2024-03-02T00:44:23;18.57;;;13.00;;
16139;SDS011;8175;49.326;12.690;2024-03-02T00:46:51;18.20;;;12.60;;
16139;SDS011;8175;49.326;12.690;2024-03-02T00:49:18;17.97;;;13.27;;
16139;SDS011;8175;49.326;12.690;2024-03-02T00:51:48;21.57;;;14.40;;
16139;SDS011;8175;49.326;12.690;2024-03-02T00:54:21;20.03;;;14.33;;
16139;SDS011;8175;49.326;12.690;2024-03-02T00:56:49;20.17;;;14.30;;
16139;SDS011;8175;49.326;12.690;2024-03-02T00:59:15;23.77;;;15.40;;
16139;SDS011;8175;49.326;12.690;2024-03-02T01:01:41;27.20;;;15.40;;
16139;SDS011;8175;49.326;12.690;2024-03-02T01:04:07;29.73;;;18.47;;
16139;SDS011;8175;49.326;12.690;2024-03-02T01:06:34;31.70;;;17.80;;
16139;SDS011;8175;49.326;12.690;2024-03-02T01:09:00;33.83;;;18.00;;
16139;SDS011;8175;49.326;12.690;2024-03-02T01:11:26;36.20;;;17.90;;
16139;SDS011;8175;49.326;12.690;2024-03-02T01:13:51;37.23;;;20.17;;
16139;SDS011;8175;49.326;12.690;2024-03-02T01:16:17;35.07;;;18.17;;
16139;SDS011;8175;49.326;12.690;2024-03-02T01:18:43;30.93;;;17.53;;
16139;SDS011;8175;49.326;12.690;2024-03-02T01:21:08;34.07;;;18.20;;
16139;SDS011;8175;49.326;12.690;2024-03-02T01:23:34;30.47;;;17.53;;
16139;SDS011;8175;49.326;12.690;2024-03-02T01:26:00;37.47;;;18.97;;
16139;SDS011;8175;49.326;12.690;2024-03-02T01:28:25;35.47;;;18.93;;
16139;SDS011;8175;49.326;12.690;2024-03-02T01:30:51;36.77;;;20.37;;
16139;SDS011;8175;49.326;12.690;2024-03-02T01:33:17;36.80;;;18.93;;
16139;SDS011;8175;49.326;12.690;2024-03-02T01:35:44;36.50;;;19.37;;
16139;SDS011;8175;49.326;12.690;2024-03-02T01:38:10;34.93;;;19.07;;
16139;SDS011;8175;49.326;12.690;2024-03-02T01:40:36;36.27;;;20.97;;
16139;SDS011;8175;49.326;12.690;2024-03-02T01:43:03;41.20;;;20.33;;
16139;SDS011;8175;49.326;12.690;2024-03-02T01:45:29;37.03;;;20.33;;
16139;SDS011;8175;49.326;12.690;2024-03-02T01:47:55;35.90;;;18.70;;
16139;SDS011;8175;49.326;12.690;2024-03-02T01:50:28;38.50;;;19.83;;
16139;SDS011;8175;49.326;12.690;2024-03-02T01:52:55;39.17;;;20.30;;
16139;SDS011;8175;49.326;12.690;2024-03-02T01:55:21;38.80;;;20.37;;
16139;SDS011;8175;49.326;12.690;2024-03-02T01:57:48;40.70;;;21.10;;
16139;SDS011;8175;49.326;12.690;2024-03-02T02:00:15;41.53;;;22.23;;
16139;SDS011;8175;49.326;12.690;2024-03-02T02:02:41;47.93;;;22.53;;
16139;SDS011;8175;49.326;12.690;2024-03-02T02:05:08;40.53;;;19.50;;
16139;SDS011;8175;49.326;12.690;2024-03-02T02:07:34;42.67;;;21.07;;
16139;SDS011;8175;49.326;12.690;2024-03-02T02:10:00;41.70;;;21.90;;
16139;SDS011;8175;49.326;12.690;2024-03-02T02:12:26;49.60;;;22.83;;
16139;SDS011;8175;49.326;12.690;2024-03-02T02:14:52;38.80;;;21.17;;
16139;SDS011;8175;49.326;12.690;2024-03-02T02:17:17;43.37;;;22.43;;
16139;SDS011;8175;49.326;12.690;2024-03-02T02:19:43;45.53;;;22.30;;
16139;SDS011;8175;49.326;12.690;2024-03-02T02:22:10;47.53;;;24.17;;
16139;SDS011;8175;49.326;12.690;2024-03-02T02:24:36;45.23;;;22.97;;
16139;SDS011;8175;49.326;12.690;2024-03-02T02:27:06;41.60;;;21.60;;
16139;SDS011;8175;49.326;12.690;2024-03-02T02:29:32;41.03;;;20.83;;
16139;SDS011;8175;49.326;12.690;2024-03-02T02:31:57;49.10;;;22.77;;
16139;SDS011;8175;49.326;12.690;2024-03-02T02:34:23;46.83;;;22.43;;
16139;SDS011;8175;49.326;12.690;2024-03-02T02:36:48;45.23;;;21.90;;
16139;SDS011;8175;49.326;12.690;2024-03-02T02:39:15;44.23;;;22.47;;
16139;SDS011;8175;49.326;12.690;2024-03-02T02:41:42;41.77;;;21.37;;
16139;SDS011;8175;49.326;12.690;2024-03-02T02:44:08;44.17;;;22.60;;
16139;SDS011;8175;49.326;12.690;2024-03-02T02:46:36;42.23;;;21.53;;
16139;SDS011;8175;49.326;12.690;2024-03-02T02:49:03;45.97;;;22.40;;
16139;SDS011;8175;49.326;12.690;2024-03-02T02:51:28;48.37;;;21.67;;
16139;SDS011;8175;49.326;12.690;2024-03-02T02:53:54;38.63;;;20.70;;
16139;SDS011;8175;49.326;12.690;2024-03-02T02:56:20;41.57;;;23.90;;
16139;SDS011;8175;49.326;12.690;2024-03-02T02:58:45;39.33;;;21.40;;
16139;SDS011;8175;49.326;12.690;2024-03-02T03:01:11;45.00;;;21.53;;
16139;SDS011;8175;49.326;12.690;2024-03-02T03:03:37;45.53;;;22.13;;
16139;SDS011;8175;49.326;12.690;2024-03-02T03:06:02;37.30;;;19.67;;
16139;SDS011;8175;49.326;12.690;2024-03-02T03:08:28;42.00;;;23.67;;
16139;SDS011;8175;49.326;12.690;2024-03-02T03:10:54;43.17;;;21.47;;
16139;SDS011;8175;49.326;12.690;2024-03-02T03:13:19;41.83;;;22.67;;
16139;SDS011;8175;49.326;12.690;2024-03-02T03:15:45;40.63;;;21.63;;
16139;SDS011;8175;49.326;12.690;2024-03-02T03:18:11;44.50;;;22.10;;
16139;SDS011;8175;49.326;12.690;2024-03-02T03:20:36;45.10;;;23.23;;
16139;SDS011;8175;49.326;12.690;2024-03-02T03:23:02;40.43;;;21.97;;
16139;SDS011;8175;49.326;12.690;2024-03-02T03:25:29;39.63;;;20.90;;
16139;SDS011;8175;49.326;12.690;2024-03-02T03:27:55;45.03;;;21.83;;
16139;SDS011;8175;49.326;12.690;2024-03-02T03:30:20;44.80;;;24.00;;
16139;SDS011;8175;49.326;12.690;2024-03-02T03:32:46;51.67;;;25.00;;
16139;SDS011;8175;49.326;12.690;2024-03-02T03:35:13;39.10;;;20.20;;
16139;SDS011;8175;49.326;12.690;2024-03-02T03:37:40;41.53;;;23.53;;
16139;SDS011;8175;49.326;12.690;2024-03-02T03:40:06;47.97;;;22.83;;
16139;SDS011;8175;49.326;12.690;2024-03-02T03:42:37;43.23;;;22.70;;
16139;SDS011;8175;49.326;12.690;2024-03-02T03:45:04;40.40;;;21.37;;
16139;SDS011;8175;49.326;12.690;2024-03-02T03:47:33;49.30;;;24.67;;
16139;SDS011;8175;49.326;12.690;2024-03-02T03:49:59;48.17;;;22.60;;
16139;SDS011;8175;49.326;12.690;2024-03-02T03:52:25;42.40;;;21.73;;
16139;SDS011;8175;49.326;12.690;2024-03-02T03:54:51;45.53;;;21.33;;
16139;SDS011;8175;49.326;12.690;2024-03-02T03:57:16;43.07;;;22.57;;
16139;SDS011;8175;49.326;12.690;2024-03-02T03:59:42;41.90;;;20.73;;
16139;SDS011;8175;49.326;12.690;2024-03-02T04:02:09;47.57;;;23.67;;
16139;SDS011;8175;49.326;12.690;2024-03-02T04:04:36;48.17;;;23.97;;
16139;SDS011;8175;49.326;12.690;2024-03-02T04:07:02;54.23;;;26.70;;
16139;SDS011;8175;49.326;12.690;2024-03-02T04:09:28;54.60;;;23.50;;
16139;SDS011;8175;49.326;12.690;2024-03-02T04:11:53;49.33;;;24.57;;
16139;SDS011;8175;49.326;12.690;2024-03-02T04:14:19;60.50;;;26.30;;
16139;SDS011;8175;49.326;12.690;2024-03-02T04:16:44;54.80;;;24.90;;
16139;SDS011;8175;49.326;12.690;2024-03-02T04:19:10;55.20;;;26.30;;
16139;SDS011;8175;49.326;12.690;2024-03-02T04:21:36;52.13;;;26.37;;
16139;SDS011;8175;49.326;12.690;2024-03-02T04:24:02;57.77;;;26.43;;
16139;SDS011;8175;49.326;12.690;2024-03-02T04:26:28;62.93;;;27.60;;
16139;SDS011;8175;49.326;12.690;2024-03-02T04:28:54;48.87;;;25.30;;
16139;SDS011;8175;49.326;12.690;2024-03-02T04:31:20;60.57;;;26.93;;
16139;SDS011;8175;49.326;12.690;2024-03-02T04:33:45;55.00;;;25.90;;
16139;SDS011;8175;49.326;12.690;2024-03-02T04:36:11;57.47;;;26.73;;
16139;SDS011;8175;49.326;12.690;2024-03-02T04:38:37;57.80;;;26.37;;
16139;SDS011;8175;49.326;12.690;2024-03-02T04:41:04;59.30;;;28.17;;
16139;SDS011;8175;49.326;12.690;2024-03-02T04:43:33;58.23;;;26.43;;
16139;SDS011;8175;49.326;12.690;2024-03-02T04:45:59;54.37;;;26.00;;
16139;SDS011;8175;49.326;12.690;2024-03-02T04:48:26;58.47;;;27.40;;
16139;SDS011;8175;49.326;12.690;2024-03-02T04:50:51;59.70;;;27.33;;
16139;SDS011;8175;49.326;12.690;2024-03-02T04:53:17;50.27;;;24.43;;
16139;SDS011;8175;49.326;12.690;2024-03-02T04:55:43;56.83;;;26.10;;
16139;SDS011;8175;49.326;12.690;2024-03-02T04:58:08;58.20;;;26.77;;
16139;SDS011;8175;49.326;12.690;2024-03-02T05:00:34;58.70;;;29.20;;
16139;SDS011;8175;49.326;12.690;2024-03-02T05:03:01;63.77;;;27.93;;
16139;SDS011;8175;49.326;12.690;2024-03-02T05:05:27;74.07;;;30.90;;
16139;SDS011;8175;49.326;12.690;2024-03-02T05:07:53;65.13;;;28.97;;
16139;SDS011;8175;49.326;12.690;2024-03-02T05:10:18;67.53;;;29.73;;
16139;SDS011;8175;49.326;12.690;2024-03-02T05:12:44;79.40;;;31.80;;
16139;SDS011;8175;49.326;12.690;2024-03-02T05:15:10;65.33;;;30.13;;
16139;SDS011;8175;49.326;12.690;2024-03-02T05:17:37;72.90;;;29.33;;
16139;SDS011;8175;49.326;12.690;2024-03-02T05:20:04;67.47;;;31.83;;
16139;SDS011;8175;49.326;12.690;2024-03-02T05:22:31;66.13;;;30.87;;
16139;SDS011;8175;49.326;12.690;2024-03-02T05:24:56;71.03;;;31.63;;
16139;SDS011;8175;49.326;12.690;2024-03-02T05:27:24;66.87;;;28.53;;
16139;SDS011;8175;49.326;12.690;2024-03-02T05:29:49;72.17;;;29.83;;
16139;SDS011;8175;49.326;12.690;2024-03-02T05:32:15;71.47;;;31.00;;
16139;SDS011;8175;49.326;12.690;2024-03-02T05:34:40;67.30;;;30.37;;
16139;SDS011;8175;49.326;12.690;2024-03-02T05:37:06;60.77;;;26.27;;
16139;SDS011;8175;49.326;12.690;2024-03-02T05:39:32;66.43;;;29.17;;
16139;SDS011;8175;49.326;12.690;2024-03-02T05:41:57;57.50;;;26.53;;
16139;SDS011;8175;49.326;12.690;2024-03-02T05:44:23;56.80;;;26.60;;
16139;SDS011;8175;49.326;12.690;2024-03-02T05:46:49;64.27;;;27.50;;
16139;SDS011;8175;49.326;12.690;2024-03-02T05:49:14;58.57;;;27.07;;
16139;SDS011;8175;49.326;12.690;2024-03-02T05:51:40;63.97;;;28.43;;
16139;SDS011;8175;49.326;12.690;2024-03-02T05:54:06;52.00;;;25.20;;
16139;SDS011;8175;49.326;12.690;2024-03-02T05:56:32;65.27;;;30.40;;
16139;SDS011;8175;49.326;12.690;2024-03-02T05:58:58;69.73;;;31.47;;
16139;SDS011;8175;49.326;12.690;2024-03-02T06:01:42;66.87;;;30.17;;
16139;SDS011;8175;49.326;12.690;2024-03-02T06:04:12;75.77;;;33.80;;
16139;SDS011;8175;49.326;12.690;2024-03-02T06:06:38;70.93;;;32.40;;
16139;SDS011;8175;49.326;12.690;2024-03-02T06:09:04;74.50;;;32.47;;
16139;SDS011;8175;49.326;12.690;2024-03-02T06:11:33;66.07;;;26.40;;
16139;SDS011;8175;49.326;12.690;2024-03-02T06:14:02;57.60;;;27.13;;
16139;SDS011;8175;49.326;12.690;2024-03-02T06:16:28;61.73;;;27.40;;
16139;SDS011;8175;49.326;12.690;2024-03-02T06:18:54;59.67;;;26.23;;
16139;SDS011;8175;49.326;12.690;2024-03-02T06:21:22;53.83;;;27.57;;
16139;SDS011;8175;49.326;12.690;2024-03-02T06:23:48;61.07;;;27.50;;
16139;SDS011;8175;49.326;12.690;2024-03-02T06:26:14;62.43;;;28.83;;
16139;SDS011;8175;49.326;12.690;2024-03-02T06:28:40;66.53;;;29.27;;
16139;SDS011;8175;49.326;12.690;2024-03-02T06:31:05;61.07;;;28.43;;
16139;SDS011;8175;49.326;12.690;2024-03-02T06:33:31;59.77;;;28.13;;
16139;SDS011;8175;49.326;12.690;2024-03-02T06:35:57;80.70;;;38.93;;
16139;SDS011;8175;49.326;12.690;2024-03-02T06:38:22;82.60;;;35.47;;
16139;SDS011;8175;49.326;12.690;2024-03-02T06:40:48;65.10;;;33.37;;
16139;SDS011;8175;49.326;12.690;2024-03-02T06:43:13;82.07;;;40.80;;
16139;SDS011;8175;49.326;12.690;2024-03-02T06:45:39;66.27;;;30.37;;
16139;SDS011;8175;49.326;12.690;2024-03-02T06:48:05;65.70;;;29.70;;
16139;SDS011;8175;49.326;12.690;2024-03-02T06:50:31;63.03;;;27.93;;
16139;SDS011;8175;49.326;12.690;2024-03-02T06:52:56;61.33;;;24.90;;
16139;SDS011;8175;49.326;12.690;2024-03-02T06:55:22;67.57;;;30.30;;
16139;SDS011;8175;49.326;12.690;2024-03-02T06:57:49;70.87;;;31.73;;
16139;SDS011;8175;49.326;12.690;2024-03-02T07:00:15;67.67;;;32.10;;
16139;SDS011;8175;49.326;12.690;2024-03-02T07:02:42;66.40;;;28.83;;
16139;SDS011;8175;49.326;12.690;2024-03-02T07:05:09;65.63;;;31.17;;
16139;SDS011;8175;49.326;12.690;2024-03-02T07:07:35;61.13;;;29.73;;
16139;SDS011;8175;49.326;12.690;2024-03-02T07:10:02;76.50;;;37.97;;
16139;SDS011;8175;49.326;12.690;2024-03-02T07:12:30;59.90;;;31.63;;
16139;SDS011;8175;49.326;12.690;2024-03-02T07:14:56;57.37;;;28.97;;
16139;SDS011;8175;49.326;12.690;2024-03-02T07:17:28;56.50;;;27.70;;
16139;SDS011;8175;49.326;12.690;2024-03-02T07:19:54;72.77;;;32.93;;
16139;SDS011;8175;49.326;12.690;2024-03-02T07:22:19;136.90;;;93.53;;
16139;SDS011;8175;49.326;12.690;2024-03-02T07:24:45;61.67;;;33.37;;
16139;SDS011;8175;49.326;12.690;2024-03-02T07:27:11;54.37;;;27.80;;
16139;SDS011;8175;49.326;12.690;2024-03-02T07:29:38;55.83;;;28.73;;
16139;SDS011;8175;49.326;12.690;2024-03-02T07:32:05;51.77;;;26.23;;
16139;SDS011;8175;49.326;12.690;2024-03-02T07:34:31;46.83;;;26.37;;
16139;SDS011;8175;49.326;12.690;2024-03-02T07:36:56;50.57;;;27.53;;
16139;SDS011;8175;49.326;12.690;2024-03-02T07:39:22;34.57;;;21.77;;
16139;SDS011;8175;49.326;12.690;2024-03-02T07:41:48;38.57;;;21.77;;
16139;SDS011;8175;49.326;12.690;2024-03-02T07:44:14;29.53;;;20.10;;
16139;SDS011;8175;49.326;12.690;2024-03-02T07:46:43;30.33;;;18.13;;
16139;SDS011;8175;49.326;12.690;2024-03-02T07:49:09;26.53;;;16.87;;
16139;SDS011;8175;49.326;12.690;2024-03-02T07:51:35;24.63;;;15.57;;
16139;SDS011;8175;49.326;12.690;2024-03-02T07:54:01;21.43;;;14.70;;
16139;SDS011;8175;49.326;12.690;2024-03-02T07:56:27;21.37;;;13.90;;
16139;SDS011;8175;49.326;12.690;2024-03-02T07:58:53;21.47;;;13.93;;
16139;SDS011;8175;49.326;12.690;2024-03-02T08:01:19;21.07;;;14.07;;
16139;SDS011;8175;49.326;12.690;2024-03-02T08:03:45;18.73;;;13.20;;
16139;SDS011;8175;49.326;12.690;2024-03-02T08:06:15;18.60;;;12.80;;
16139;SDS011;8175;49.326;12.690;2024-03-02T08:08:41;20.27;;;13.17;;
16139;SDS011;8175;49.326;12.690;2024-03-02T08:11:07;26.20;;;15.53;;
16139;SDS011;8175;49.326;12.690;2024-03-02T08:13:33;21.40;;;13.47;;
16139;SDS011;8175;49.326;12.690;2024-03-02T08:15:58;23.47;;;15.13;;
16139;SDS011;8175;49.326;12.690;2024-03-02T08:18:24;25.37;;;15.53;;
16139;SDS011;8175;49.326;12.690;2024-03-02T08:20:50;24.80;;;15.97;;
16139;SDS011;8175;49.326;12.690;2024-03-02T08:23:17;27.60;;;17.00;;
16139;SDS011;8175;49.326;12.690;2024-03-02T08:25:43;25.27;;;15.90;;
16139;SDS011;8175;49.326;12.690;2024-03-02T08:28:08;21.80;;;14.50;;
16139;SDS011;8175;49.326;12.690;2024-03-02T08:30:34;20.70;;;14.43;;
16139;SDS011;8175;49.326;12.690;2024-03-02T08:32:59;21.13;;;14.60;;
16139;SDS011;8175;49.326;12.690;2024-03-02T08:35:25;26.50;;;16.93;;
16139;SDS011;8175;49.326;12.690;2024-03-02T08:37:51;25.87;;;16.23;;
16139;SDS011;8175;49.326;12.690;2024-03-02T08:40:17;21.57;;;15.63;;
16139;SDS011;8175;49.326;12.690;2024-03-02T08:42:42;25.10;;;17.90;;
16139;SDS011;8175;49.326;12.690;2024-03-02T08:45:08;25.93;;;16.37;;
16139;SDS011;8175;49.326;12.690;2024-03-02T08:47:34;23.63;;;15.50;;
16139;SDS011;8175;49.326;12.690;2024-03-02T08:50:00;31.63;;;19.90;;
16139;SDS011;8175;49.326;12.690;2024-03-02T08:52:26;24.70;;;15.93;;
16139;SDS011;8175;49.326;12.690;2024-03-02T08:54:52;25.47;;;16.47;;
16139;SDS011;8175;49.326;12.690;2024-03-02T08:57:17;22.97;;;15.73;;
16139;SDS011;8175;49.326;12.690;2024-03-02T08:59:43;26.80;;;15.93;;
16139;SDS011;8175;49.326;12.690;2024-03-02T09:02:09;27.43;;;16.20;;
16139;SDS011;8175;49.326;12.690;2024-03-02T09:04:35;25.97;;;16.50;;
16139;SDS011;8175;49.326;12.690;2024-03-02T09:07:01;27.83;;;15.67;;
16139;SDS011;8175;49.326;12.690;2024-03-02T09:09:27;22.40;;;15.40;;
16139;SDS011;8175;49.326;12.690;2024-03-02T09:11:52;27.13;;;15.47;;
16139;SDS011;8175;49.326;12.690;2024-03-02T09:14:22;24.13;;;15.67;;
16139;SDS011;8175;49.326;12.690;2024-03-02T09:16:48;26.27;;;15.63;;
16139;SDS011;8175;49.326;12.690;2024-03-02T09:19:14;18.37;;;12.33;;
16139;SDS011;8175;49.326;12.690;2024-03-02T09:21:39;22.47;;;14.53;;
16139;SDS011;8175;49.326;12.690;2024-03-02T09:24:07;22.17;;;14.87;;
16139;SDS011;8175;49.326;12.690;2024-03-02T09:26:32;22.40;;;14.40;;
16139;SDS011;8175;49.326;12.690;2024-03-02T09:28:58;21.17;;;14.60;;
16139;SDS011;8175;49.326;12.690;2024-03-02T09:31:24;21.87;;;15.13;;
16139;SDS011;8175;49.326;12.690;2024-03-02T09:33:49;23.87;;;15.53;;
16139;SDS011;8175;49.326;12.690;2024-03-02T09:36:18;24.47;;;15.73;;
16139;SDS011;8175;49.326;12.690;2024-03-02T09:38:45;26.37;;;15.50;;
16139;SDS011;8175;49.326;12.690;2024-03-02T09:41:11;24.90;;;15.47;;
16139;SDS011;8175;49.326;12.690;2024-03-02T09:43:37;27.77;;;16.90;;
16139;SDS011;8175;49.326;12.690;2024-03-02T09:46:03;28.37;;;16.23;;
16139;SDS011;8175;49.326;12.690;2024-03-02T09:48:29;27.53;;;16.43;;
16139;SDS011;8175;49.326;12.690;2024-03-02T09:50:55;24.77;;;15.83;;
16139;SDS011;8175;49.326;12.690;2024-03-02T09:53:22;25.53;;;17.27;;
16139;SDS011;8175;49.326;12.690;2024-03-02T09:55:48;22.70;;;15.27;;
16139;SDS011;8175;49.326;12.690;2024-03-02T09:58:13;25.27;;;15.50;;
16139;SDS011;8175;49.326;12.690;2024-03-02T10:00:39;23.57;;;14.47;;
16139;SDS011;8175;49.326;12.690;2024-03-02T10:03:05;28.20;;;16.87;;
16139;SDS011;8175;49.326;12.690;2024-03-02T10:05:36;26.53;;;16.10;;
16139;SDS011;8175;49.326;12.690;2024-03-02T10:08:02;26.07;;;15.63;;
16139;SDS011;8175;49.326;12.690;2024-03-02T10:10:35;20.10;;;14.57;;
16139;SDS011;8175;49.326;12.690;2024-03-02T10:13:04;22.17;;;15.23;;
16139;SDS011;8175;49.326;12.690;2024-03-02T10:15:34;23.37;;;15.33;;
16139;SDS011;8175;49.326;12.690;2024-03-02T10:18:02;22.00;;;13.90;;
16139;SDS011;8175;49.326;12.690;2024-03-02T10:20:28;23.47;;;15.27;;
16139;SDS011;8175;49.326;12.690;2024-03-02T10:22:54;20.47;;;14.43;;
16139;SDS011;8175;49.326;12.690;2024-03-02T10:25:30;21.97;;;14.40;;
16139;SDS011;8175;49.326;12.690;2024-03-02T10:28:00;19.87;;;14.87;;
16139;SDS011;8175;49.326;12.690;2024-03-02T10:30:26;20.97;;;14.53;;
16139;SDS011;8175;49.326;12.690;2024-03-02T10:32:53;24.33;;;15.97;;
16139;SDS011;8175;49.326;12.690;2024-03-02T10:35:22;22.67;;;15.40;;
16139;SDS011;8175;49.326;12.690;2024-03-02T10:37:51;22.00;;;13.60;;
16139;SDS011;8175;49.326;12.690;2024-03-02T10:40:18;19.93;;;13.83;;
16139;SDS011;8175;49.326;12.690;2024-03-02T10:42:47;22.03;;;14.07;;
16139;SDS011;8175;49.326;12.690;2024-03-02T10:45:15;20.17;;;13.50;;
16139;SDS011;8175;49.326;12.690;2024-03-02T10:47:42;22.13;;;13.93;;
16139;SDS011;8175;49.326;12.690;2024-03-02T10:50:09;19.63;;;13.23;;
16139;SDS011;8175;49.326;12.690;2024-03-02T10:52:35;20.33;;;13.53;;
16139;SDS011;8175;49.326;12.690;2024-03-02T10:55:02;19.20;;;13.60;;
16139;SDS011;8175;49.326;12.690;2024-03-02T10:57:37;17.93;;;12.80;;
16139;SDS011;8175;49.326;12.690;2024-03-02T11:00:15;16.80;;;11.87;;
16139;SDS011;8175;49.326;12.690;2024-03-02T11:05:38;16.93;;;11.10;;
16139;SDS011;8175;49.326;12.690;2024-03-02T11:08:06;17.27;;;12.47;;
16139;SDS011;8175;49.326;12.690;2024-03-02T11:10:38;16.97;;;12.80;;
16139;SDS011;8175;49.326;12.690;2024-03-02T11:13:16;26.50;;;18.53;;
16139;SDS011;8175;49.326;12.690;2024-03-02T11:15:49;20.37;;;14.30;;
16139;SDS011;8175;49.326;12.690;2024-03-02T11:18:20;20.40;;;15.00;;
16139;SDS011;8175;49.326;12.690;2024-03-02T11:20:46;16.87;;;12.70;;
16139;SDS011;8175;49.326;12.690;2024-03-02T11:23:13;17.47;;;12.83;;
16139;SDS011;8175;49.326;12.690;2024-03-02T11:25:40;20.47;;;14.67;;
16139;SDS011;8175;49.326;12.690;2024-03-02T11:28:06;23.63;;;16.07;;
16139;SDS011;8175;49.326;12.690;2024-03-02T11:33:08;17.93;;;13.03;;
16139;SDS011;8175;49.326;12.690;2024-03-02T11:38:02;33.20;;;22.57;;
16139;SDS011;8175;49.326;12.690;2024-03-02T11:40:28;34.30;;;23.20;;
16139;SDS011;8175;49.326;12.690;2024-03-02T11:42:55;19.03;;;13.50;;
16139;SDS011;8175;49.326;12.690;2024-03-02T11:45:22;17.13;;;12.50;;
16139;SDS011;8175;49.326;12.690;2024-03-02T11:47:58;13.80;;;11.10;;
16139;SDS011;8175;49.326;12.690;2024-03-02T11:50:31;19.23;;;13.80;;
16139;SDS011;8175;49.326;12.690;2024-03-02T11:53:02;19.13;;;14.45;;
16139;SDS011;8175;49.326;12.690;2024-03-02T11:55:38;14.30;;;11.87;;
16139;SDS011;8175;49.326;12.690;2024-03-02T11:58:05;18.10;;;13.70;;
16139;SDS011;8175;49.326;12.690;2024-03-02T12:00:32;18.60;;;13.43;;
16139;SDS011;8175;49.326;12.690;2024-03-02T12:03:04;16.23;;;12.10;;
16139;SDS011;8175;49.326;12.690;2024-03-02T12:05:31;16.60;;;12.83;;
16139;SDS011;8175;49.326;12.690;2024-03-02T12:07:58;15.43;;;12.37;;
16139;SDS011;8175;49.326;12.690;2024-03-02T12:10:28;16.07;;;11.70;;
16139;SDS011;8175;49.326;12.690;2024-03-02T12:13:01;13.60;;;11.63;;
16139;SDS011;8175;49.326;12.690;2024-03-02T12:15:29;13.33;;;10.13;;
16139;SDS011;8175;49.326;12.690;2024-03-02T12:17:56;12.67;;;10.17;;
16139;SDS011;8175;49.326;12.690;2024-03-02T12:20:23;14.43;;;10.30;;
16139;SDS011;8175;49.326;12.690;2024-03-02T12:22:50;14.23;;;10.50;;
16139;SDS011;8175;49.326;12.690;2024-03-02T12:25:17;12.90;;;9.27;;
16139;SDS011;8175;49.326;12.690;2024-03-02T12:27:48;10.30;;;7.80;;
16139;SDS011;8175;49.326;12.690;2024-03-02T12:30:18;10.57;;;8.03;;
16139;SDS011;8175;49.326;12.690;2024-03-02T12:32:44;9.70;;;7.93;;
16139;SDS011;8175;49.326;12.690;2024-03-02T12:35:10;11.32;;;9.20;;
16139;SDS011;8175;49.326;12.690;2024-03-02T12:37:58;10.20;;;7.70;;
16139;SDS011;8175;49.326;12.690;2024-03-02T12:40:23;9.63;;;7.65;;
16139;SDS011;8175;49.326;12.690;2024-03-02T12:42:49;8.27;;;7.32;;
16139;SDS011;8175;49.326;12.690;2024-03-02T12:45:15;9.75;;;7.53;;
16139;SDS011;8175;49.326;12.690;2024-03-02T12:47:48;9.25;;;7.45;;
16139;SDS011;8175;49.326;12.690;2024-03-02T12:50:14;12.10;;;8.17;;
16139;SDS011;8175;49.326;12.690;2024-03-02T12:52:40;9.70;;;7.80;;
16139;SDS011;8175;49.326;12.690;2024-03-02T12:55:06;9.87;;;7.10;;
16139;SDS011;8175;49.326;12.690;2024-03-02T12:57:32;10.37;;;7.93;;
16139;SDS011;8175;49.326;12.690;2024-03-02T12:59:59;12.60;;;9.27;;
16139;SDS011;8175;49.326;12.690;2024-03-02T13:02:29;9.97;;;7.80;;
16139;SDS011;8175;49.326;12.690;2024-03-02T13:04:55;9.87;;;8.27;;
16139;SDS011;8175;49.326;12.690;2024-03-02T13:07:23;12.30;;;9.20;;
16139;SDS011;8175;49.326;12.690;2024-03-02T13:09:50;9.70;;;7.70;;
16139;SDS011;8175;49.326;12.690;2024-03-02T13:12:16;9.93;;;7.80;;
16139;SDS011;8175;49.326;12.690;2024-03-02T13:14:42;9.33;;;7.70;;
16139;SDS011;8175;49.326;12.690;2024-03-02T13:17:08;10.97;;;8.37;;
16139;SDS011;8175;49.326;12.690;2024-03-02T13:19:34;11.10;;;8.27;;
16139;SDS011;8175;49.326;12.690;2024-03-02T13:22:00;8.50;;;7.60;;
16139;SDS011;8175;49.326;12.690;2024-03-02T13:24:29;10.77;;;7.87;;
16139;SDS011;8175;49.326;12.690;2024-03-02T13:26:56;7.63;;;6.57;;
16139;SDS011;8175;49.326;12.690;2024-03-02T13:29:23;11.87;;;7.40;;
16139;SDS011;8175;49.326;12.690;2024-03-02T13:31:49;10.20;;;8.17;;
16139;SDS011;8175;49.326;12.690;2024-03-02T13:34:15;8.50;;;6.95;;
16139;SDS011;8175;49.326;12.690;2024-03-02T13:36:41;9.45;;;7.35;;
16139;SDS011;8175;49.326;12.690;2024-03-02T13:39:06;6.72;;;6.03;;
16139;SDS011;8175;49.326;12.690;2024-03-02T13:41:35;9.60;;;6.20;;
16139;SDS011;8175;49.326;12.690;2024-03-02T13:44:01;6.20;;;5.60;;
16139;SDS011;8175;49.326;12.690;2024-03-02T13:46:26;6.53;;;5.53;;
16139;SDS011;8175;49.326;12.690;2024-03-02T13:48:52;7.00;;;5.80;;
16139;SDS011;8175;49.326;12.690;2024-03-02T13:51:19;7.20;;;5.73;;
16139;SDS011;8175;49.326;12.690;2024-03-02T13:53:45;6.63;;;5.77;;
16139;SDS011;8175;49.326;12.690;2024-03-02T13:56:11;8.07;;;6.30;;
16139;SDS011;8175;49.326;12.690;2024-03-02T13:58:37;8.60;;;6.97;;
16139;SDS011;8175;49.326;12.690;2024-03-02T14:01:02;9.53;;;7.40;;
16139;SDS011;8175;49.326;12.690;2024-03-02T14:03:30;8.93;;;7.57;;
16139;SDS011;8175;49.326;12.690;2024-03-02T14:05:56;8.80;;;7.13;;
16139;SDS011;8175;49.326;12.690;2024-03-02T14:08:22;11.37;;;7.53;;
16139;SDS011;8175;49.326;12.690;2024-03-02T14:10:48;9.40;;;7.33;;
16139;SDS011;8175;49.326;12.690;2024-03-02T14:13:14;9.00;;;7.23;;
16139;SDS011;8175;49.326;12.690;2024-03-02T14:15:40;7.57;;;6.77;;
16139;SDS011;8175;49.326;12.690;2024-03-02T14:18:06;8.40;;;6.97;;
16139;SDS011;8175;49.326;12.690;2024-03-02T14:20:35;7.63;;;6.53;;
16139;SDS011;8175;49.326;12.690;2024-03-02T14:23:00;7.07;;;6.27;;
16139;SDS011;8175;49.326;12.690;2024-03-02T14:25:27;7.80;;;6.13;;
16139;SDS011;8175;49.326;12.690;2024-03-02T14:27:56;9.00;;;6.17;;
16139;SDS011;8175;49.326;12.690;2024-03-02T14:30:22;6.57;;;5.50;;
16139;SDS011;8175;49.326;12.690;2024-03-02T14:32:48;6.10;;;5.43;;
16139;SDS011;8175;49.326;12.690;2024-03-02T14:35:14;5.83;;;4.97;;